Time;durP1;ratioP1;P1;durP2;ratioP2;P2;SDS_P1;SDS_P2;PMS_P1;PMS_P2;Temp;Humidity;BMP_temperature;BMP_pressure;BME280_temperature;BME280_humidity;BME280_pressure;Samples;Min_cycle;Max_cycle;Signal;HPM_P1;HPM_P2
2022/06/28 00:02:27;;;;;;;7.68;3.47;;;;;;;16.97;84.94;101935.41;5001912;28;20497;-49
2022/06/28 00:05:15;;;;;;;6.35;3.47;;;;;;;16.93;85.24;101940.66;5011523;28;20057;-50
2022/06/28 00:08:03;;;;;;;5.25;3.20;;;;;;;16.88;85.56;101937.91;5012771;28;20049;-50
2022/06/28 00:10:50;;;;;;;5.75;3.03;;;;;;;16.86;85.82;101940.16;5010335;28;20046;-52
2022/06/28 00:13:38;;;;;;;5.72;2.97;;;;;;;16.86;85.49;101937.41;5017652;28;20485;-51
2022/06/28 00:16:26;;;;;;;6.75;3.10;;;;;;;16.83;85.92;101947.03;5004231;28;20048;-51
2022/06/28 00:19:13;;;;;;;5.40;3.40;;;;;;;16.83;85.84;101948.97;5012405;28;20073;-49
2022/06/28 00:22:01;;;;;;;5.32;3.03;;;;;;;16.79;85.64;101942.38;5013112;28;20054;-50
2022/06/28 00:24:49;;;;;;;4.93;3.08;;;;;;;16.78;86.02;101943.44;5011248;28;20042;-50
2022/06/28 00:27:37;;;;;;;4.80;2.70;;;;;;;16.80;85.90;101944.03;5016420;28;20100;-51
2022/06/28 00:30:24;;;;;;;6.68;3.20;;;;;;;16.82;85.81;101941.81;5005384;28;20042;-48
2022/06/28 00:33:12;;;;;;;7.90;2.88;;;;;;;16.82;85.70;101948.13;5023516;28;20042;-50
2022/06/28 00:36:00;;;;;;;8.68;3.65;;;;;;;16.82;85.72;101941.81;5006920;28;20085;-51
2022/06/28 00:38:48;;;;;;;8.23;3.22;;;;;;;16.80;85.41;101939.34;5006545;28;20072;-52
2022/06/28 00:41:25;;;;;;;5.63;2.92;;;;;;;16.80;85.45;101944.03;5011215;28;20049;-49
2022/06/28 00:44:13;;;;;;;4.72;2.78;;;;;;;16.79;85.21;101939.63;5012705;28;20046;-50
2022/06/28 00:47:02;;;;;;;6.80;3.15;;;;;;;16.77;85.07;101950.06;5008051;28;20061;-53
2022/06/28 00:49:50;;;;;;;5.68;2.72;;;;;;;16.75;85.01;101949.53;5005989;28;20053;-51
2022/06/28 00:53:02;;;;;;;6.03;2.92;;;;;;;16.71;84.92;101951.19;5024295;28;20041;-52
2022/06/28 00:55:50;;;;;;;5.15;2.85;;;;;;;16.67;84.92;101950.94;5008749;28;20042;-51
2022/06/28 00:58:37;;;;;;;6.22;2.88;;;;;;;16.65;84.92;101947.66;4998679;28;20374;-50
2022/06/28 01:01:26;;;;;;;5.50;3.10;;;;;;;16.64;85.26;101950.66;5007708;28;20042;-52
2022/06/28 01:04:15;;;;;;;9.75;4.90;;;;;;;16.61;85.38;101958.38;5013928;28;20061;-52
2022/06/28 01:07:05;;;;;;;6.78;3.47;;;;;;;16.64;85.60;101950.66;5009450;28;20080;-52
2022/06/28 01:09:53;;;;;;;9.75;3.28;;;;;;;16.61;85.42;101957.56;5009069;28;20527;-54
2022/06/28 01:12:40;;;;;;;7.10;2.85;;;;;;;16.58;84.79;101953.44;5014517;28;20081;-51
2022/06/28 01:15:30;;;;;;;5.68;3.00;;;;;;;16.57;84.95;101957.31;5008900;28;20053;-51
2022/06/28 01:18:22;;;;;;;8.88;3.05;;;;;;;16.55;85.60;101956.75;5011508;28;20061;-54
2022/06/28 01:21:15;;;;;;;5.05;2.85;;;;;;;16.54;85.39;101960.59;4997317;28;20050;-55
2022/06/28 01:24:05;;;;;;;4.63;2.80;;;;;;;16.52;84.77;101957.31;5010292;28;20053;-52
2022/06/28 01:27:04;;;;;;;6.88;3.10;;;;;;;16.51;84.90;101952.09;5006377;28;20405;-52
2022/06/28 01:29:52;;;;;;;5.32;2.88;;;;;;;16.51;85.29;101963.09;4998618;28;20074;-51
2022/06/28 01:32:57;;;;;;;6.30;2.78;;;;;;;16.50;85.07;101967.78;5014198;28;20524;-51
2022/06/28 01:35:45;;;;;;;4.85;2.75;;;;;;;16.50;85.41;101962.28;5007238;28;20046;-52
2022/06/28 01:38:33;;;;;;;5.32;2.83;;;;;;;16.52;85.41;101965.56;4999792;28;20041;-53
2022/06/28 01:41:33;;;;;;;5.13;2.90;;;;;;;16.51;85.14;101969.41;5000468;28;20070;-51
2022/06/28 01:44:35;;;;;;;4.07;2.95;;;;;;;16.49;85.25;101971.63;5017806;28;20050;-48
2022/06/28 01:47:36;;;;;;;9.55;3.08;;;;;;;16.50;85.43;101966.94;5007009;28;20073;-51
2022/06/28 01:50:52;;;;;;;5.68;2.78;;;;;;;16.48;84.81;101970.00;4998928;28;20405;-51
2022/06/28 01:53:41;;;;;;;5.20;3.00;;;;;;;16.46;84.83;101968.63;5011668;28;20096;-50
2022/06/28 01:56:47;;;;;;;7.57;3.28;;;;;;;16.43;84.97;101967.25;4996239;28;20056;-53
2022/06/28 01:59:40;;;;;;;6.45;3.33;;;;;;;16.39;84.68;101977.16;4996454;28;20034;-49
2022/06/28 02:02:38;;;;;;;5.45;2.75;;;;;;;16.40;85.53;101984.28;5002506;28;20096;-48
2022/06/28 02:05:46;;;;;;;7.35;3.10;;;;;;;16.38;85.57;101981.03;5008835;28;20100;-46
2022/06/28 02:08:35;;;;;;;4.35;2.95;;;;;;;16.36;85.34;101988.72;5006812;28;20077;-50
2022/06/28 02:11:26;;;;;;;5.03;3.05;;;;;;;16.34;85.61;101988.19;5011640;28;20097;-51
2022/06/28 02:14:14;;;;;;;5.80;2.92;;;;;;;16.33;85.62;101994.75;5011495;28;20129;-49
2022/06/28 02:17:04;;;;;;;5.68;2.92;;;;;;;16.32;85.69;101993.13;5006967;28;20092;-51
2022/06/28 02:19:54;;;;;;;6.65;3.17;;;;;;;16.31;85.61;101992.31;5003346;28;20052;-45
2022/06/28 02:22:41;;;;;;;4.50;2.88;;;;;;;16.29;85.40;101996.44;5013595;28;20046;-52
2022/06/28 02:25:21;;;;;;;5.80;3.40;;;;;;;16.25;85.40;102000.84;4979536;28;20056;-51
2022/06/28 02:28:08;;;;;;;6.45;2.92;;;;;;;16.25;85.73;102003.59;5007758;28;20081;-49
2022/06/28 02:30:56;;;;;;;5.97;3.28;;;;;;;16.24;85.29;102008.28;5013585;28;20511;-47
2022/06/28 02:33:44;;;;;;;7.47;3.50;;;;;;;16.23;85.39;102006.59;5006971;28;20465;-49
2022/06/28 02:42:44;;;;;;;5.93;3.08;;;;;;;16.21;85.20;102011.59;5008871;28;20128;-48
2022/06/28 02:45:34;;;;;;;6.43;3.15;;;;;;;16.19;85.53;102011.03;4987052;28;20068;-46
2022/06/28 02:48:22;;;;;;;5.05;3.00;;;;;;;16.21;85.65;102021.75;5013445;28;20080;-50
2022/06/28 02:51:09;;;;;;;5.70;3.15;;;;;;;16.18;85.21;102025.88;5012081;28;20050;-48
2022/06/28 02:53:58;;;;;;;4.82;3.15;;;;;;;16.19;85.62;102027.53;5013582;28;20049;-50
2022/06/28 02:56:46;;;;;;;5.57;2.97;;;;;;;16.17;85.63;102026.97;5007861;28;20484;-50
2022/06/28 02:59:33;;;;;;;5.53;3.08;;;;;;;16.14;85.11;102049.53;5007786;28;20057;-56
2022/06/28 03:02:22;;;;;;;6.82;3.45;;;;;;;16.13;85.19;102050.63;4999485;28;20120;-54
2022/06/28 03:05:13;;;;;;;7.03;3.10;;;;;;;16.09;85.31;102047.63;5016210;28;20133;-52
2022/06/28 03:08:01;;;;;;;5.03;3.20;;;;;;;16.07;85.49;102055.31;4997577;28;20148;-52
2022/06/28 03:10:51;;;;;;;8.32;3.30;;;;;;;16.08;85.72;102047.88;5006392;28;20414;-50
2022/06/28 03:13:39;;;;;;;4.78;3.03;;;;;;;16.03;85.43;102048.69;5013455;28;20053;-56
2022/06/28 03:16:27;;;;;;;5.43;3.13;;;;;;;16.00;85.06;102048.44;5013331;28;20046;-52
2022/06/28 03:19:15;;;;;;;6.57;2.75;;;;;;;15.98;85.68;102045.97;4995956;28;20057;-51
2022/06/28 03:22:03;;;;;;;6.97;2.97;;;;;;;15.99;85.32;102053.09;4999157;28;20064;-53
2022/06/28 03:24:51;;;;;;;6.80;3.05;;;;;;;16.03;85.72;102065.19;5019705;28;20595;-54
2022/06/28 03:27:38;;;;;;;6.22;3.25;;;;;;;16.01;85.06;102064.63;5022933;28;20064;-52
2022/06/28 03:30:26;;;;;;;5.43;3.05;;;;;;;16.00;85.06;102063.00;4997969;28;20068;-51
2022/06/28 03:33:13;;;;;;;5.97;3.25;;;;;;;16.01;84.55;102067.38;5007757;28;20137;-51
2022/06/28 03:36:01;;;;;;;4.88;2.97;;;;;;;15.99;84.09;102064.09;5008887;28;20524;-50
2022/06/28 03:38:55;;;;;;;6.43;3.20;;;;;;;15.96;84.10;102065.47;4996949;28;20046;-53
2022/06/28 03:41:52;;;;;;;5.25;2.92;;;;;;;15.92;83.75;102066.28;4994707;28;20046;-50
2022/06/28 03:44:41;;;;;;;4.88;3.22;;;;;;;15.89;83.79;102064.91;5008003;28;20065;-53
2022/06/28 03:47:28;;;;;;;4.68;2.60;;;;;;;15.87;84.31;102063.53;5008949;28;20449;-50
2022/06/28 03:50:16;;;;;;;6.20;3.30;;;;;;;15.85;83.58;102072.06;5000370;28;20503;-50
2022/06/28 03:53:13;;;;;;;5.13;3.00;;;;;;;15.84;83.88;102064.09;5025772;28;20129;-51
2022/06/28 03:56:19;;;;;;;6.03;3.30;;;;;;;15.83;83.58;102062.44;5010744;28;20093;-53
2022/06/28 03:59:06;;;;;;;4.53;2.80;;;;;;;15.83;83.61;102067.94;5010265;28;20048;-50
2022/06/28 04:01:55;;;;;;;8.93;3.33;;;;;;;15.77;82.54;102065.16;5013738;28;20054;-51
2022/06/28 04:04:43;;;;;;;4.03;2.85;;;;;;;15.76;83.45;102074.50;5024332;28;20058;-52
2022/06/28 04:07:32;;;;;;;6.80;3.05;;;;;;;15.76;83.26;102071.78;5023385;28;20564;-47
2022/06/28 04:10:20;;;;;;;5.50;3.03;;;;;;;15.75;83.99;102075.63;5006797;28;20042;-47
2022/06/28 04:13:11;;;;;;;7.63;3.17;;;;;;;15.82;84.79;102072.59;4997318;28;20119;-49
2022/06/28 04:15:48;;;;;;;9.25;3.30;;;;;;;15.87;84.77;102075.34;5026728;28;20038;-50
2022/06/28 04:18:43;;;;;;;6.18;3.20;;;;;;;15.86;83.54;102075.63;4996375;28;20568;-50
2022/06/28 04:21:47;;;;;;;;;;;;;;;15.82;84.37;102080.03;5023524;28;20527;-53
2022/06/28 04:24:38;;;;;;;5.65;3.00;;;;;;;15.81;83.24;102081.13;5010625;28;20380;-49
2022/06/28 04:27:37;;;;;;;6.70;2.83;;;;;;;15.86;84.39;102084.69;5009425;28;20128;-51
2022/06/28 04:30:25;;;;;;;9.80;3.53;;;;;;;15.87;83.69;102082.75;4997197;28;20073;-49
2022/06/28 04:33:18;;;;;;;5.13;3.13;;;;;;;15.87;83.69;102085.50;4999151;28;20526;-50
2022/06/28 04:36:06;;;;;;;9.00;3.45;;;;;;;15.89;83.73;102084.16;5025027;28;20047;-49
2022/06/28 04:38:55;;;;;;;6.63;3.17;;;;;;;15.92;83.54;102085.53;5000107;28;20050;-50
2022/06/28 04:41:47;;;;;;;7.25;3.00;;;;;;;15.87;82.59;102080.03;5000267;28;20057;-50
2022/06/28 04:44:38;;;;;;;7.68;2.53;;;;;;;15.82;82.57;102082.75;5015926;28;20129;-52
2022/06/28 04:47:29;;;;;;;5.10;2.70;;;;;;;15.85;82.98;102079.47;5028335;28;20057;-52
2022/06/28 04:50:17;;;;;;;6.93;3.30;;;;;;;15.84;82.68;102075.91;5015254;28;20038;-47
2022/06/28 04:53:05;;;;;;;7.70;2.88;;;;;;;15.87;82.35;102074.53;5028118;28;20496;-46
2022/06/28 04:55:54;;;;;;;6.95;3.15;;;;;;;15.88;82.38;102074.25;5000656;28;20061;-49
2022/06/28 04:58:22;;;;;;;6.60;3.10;;;;;;;15.90;82.14;102074.00;5014362;28;20120;-46
2022/06/28 05:01:09;;;;;;;6.82;3.00;;;;;;;15.91;81.28;102081.94;4321666;28;10000402;-47
2022/06/28 05:04:00;;;;;;;6.28;3.30;;;;;;;15.92;81.20;102077.28;5025002;28;20108;-53
2022/06/28 05:07:19;;;;;;;8.95;3.22;;;;;;;15.95;81.53;102082.25;5007625;28;20085;-56
2022/06/28 05:10:07;;;;;;;7.60;3.03;;;;;;;15.95;81.02;102079.50;4997688;28;20077;-53
2022/06/28 05:13:01;;;;;;;6.47;2.80;;;;;;;15.98;81.40;102087.19;5024308;28;20049;-49
2022/06/28 05:15:48;;;;;;;7.43;3.10;;;;;;;15.98;80.73;102082.50;5010559;28;20132;-48
2022/06/28 05:18:36;;;;;;;6.85;3.25;;;;;;;15.99;81.13;102091.56;5010876;28;20045;-53
2022/06/28 05:21:27;;;;;;;8.30;3.20;;;;;;;16.01;81.08;102089.38;4993125;28;20042;-52
2022/06/28 05:24:15;;;;;;;8.25;3.17;;;;;;;16.04;80.90;102090.75;5006924;28;20874;-53
2022/06/28 05:27:12;;;;;;;8.35;3.17;;;;;;;16.06;81.18;102083.88;5004723;28;20183;-52
2022/06/28 05:30:00;;;;;;;8.32;3.15;;;;;;;16.06;80.86;102077.56;5009452;28;20042;-49
2022/06/28 05:32:48;;;;;;;6.88;2.95;;;;;;;16.08;80.81;102081.69;5022892;28;20048;-56
2022/06/28 05:35:16;;;;;;;11.82;3.90;;;;;;;16.10;81.05;102079.50;4993122;28;20056;-52
2022/06/28 05:38:04;;;;;;;7.85;3.17;;;;;;;16.12;80.46;102077.31;5009730;28;20052;-53
2022/06/28 05:40:52;;;;;;;12.07;3.67;;;;;;;16.18;80.03;102081.69;4998316;28;20057;-51
2022/06/28 05:43:40;;;;;;;174.73;43.42;;;;;;;16.16;79.76;102078.41;4996875;28;20104;-51
2022/06/28 05:46:28;;;;;;;21.98;7.47;;;;;;;16.15;78.71;102076.75;5008382;28;20582;-54
2022/06/28 05:49:16;;;;;;;27.83;7.90;;;;;;;16.15;78.78;102074.00;5010798;28;20456;-52
2022/06/28 05:52:05;;;;;;;15.23;4.38;;;;;;;16.12;78.45;102077.31;4999710;28;20064;-52
2022/06/28 05:54:52;;;;;;;24.33;6.22;;;;;;;16.12;78.78;102073.72;5004896;28;20053;-49
2022/06/28 05:57:40;;;;;;;14.93;4.65;;;;;;;16.12;77.74;102066.31;4996881;28;20060;-53
2022/06/28 06:00:13;;;;;;;12.02;4.00;;;;;;;16.11;77.77;102075.63;4978684;28;20127;-50
2022/06/28 06:03:01;;;;;;;9.95;3.70;;;;;;;16.12;77.46;102070.97;5010268;28;20512;-54
2022/06/28 06:05:50;;;;;;;7.90;3.35;;;;;;;16.12;78.09;102066.31;5010110;28;20057;-48
2022/06/28 06:08:37;;;;;;;11.40;4.38;;;;;;;16.18;78.21;102075.38;4993826;28;20065;-48
2022/06/28 06:11:25;;;;;;;10.00;3.50;;;;;;;16.22;77.92;102072.91;4996051;28;20045;-48
2022/06/28 06:14:15;;;;;;;7.90;3.08;;;;;;;16.24;77.87;102078.97;5007935;28;20054;-50
2022/06/28 06:17:04;;;;;;;8.00;3.42;;;;;;;16.26;77.88;102079.47;4996327;28;20707;-50
2022/06/28 06:19:51;;;;;;;11.15;3.42;;;;;;;16.28;77.61;102080.84;5010610;28;20405;-49
2022/06/28 06:22:39;;;;;;;9.13;3.53;;;;;;;16.31;77.75;102085.81;5011999;28;20034;-52
2022/06/28 06:25:50;;;;;;;12.18;4.15;;;;;;;16.35;77.50;102083.34;5007475;28;20049;-52
2022/06/28 06:28:38;;;;;;;11.82;3.63;;;;;;;16.38;77.78;102085.56;5018831;28;20142;-50
2022/06/28 06:31:26;;;;;;;11.75;3.83;;;;;;;16.45;77.76;102086.09;4997605;28;20045;-50
2022/06/28 06:34:32;;;;;;;9.55;3.67;;;;;;;16.45;77.85;102080.59;5011860;28;20057;-52
2022/06/28 06:37:24;;;;;;;12.73;3.67;;;;;;;16.45;77.54;102086.09;5006938;28;20386;-50
2022/06/28 06:40:12;;;;;;;12.27;3.97;;;;;;;16.47;77.54;102083.06;5005810;28;20042;-53
2022/06/28 06:43:00;;;;;;;13.73;4.10;;;;;;;16.49;77.38;102091.84;4996862;28;20046;-51
2022/06/28 06:45:44;;;;;;;12.00;4.30;;;;;;;16.47;77.01;102083.88;4995107;28;20133;-55
2022/06/28 06:48:31;;;;;;;12.50;4.13;;;;;;;16.48;77.35;102085.53;5005776;28;20050;-54
2022/06/28 06:51:19;;;;;;;12.40;3.85;;;;;;;16.51;77.19;102093.22;5012712;28;20411;-52
2022/06/28 06:53:58;;;;;;;10.45;3.90;;;;;;;16.54;77.02;102095.41;4981157;28;20050;-56
2022/06/28 06:56:46;;;;;;;13.60;3.88;;;;;;;16.55;76.78;102097.09;5012734;28;20053;-50
2022/06/28 06:59:35;;;;;;;13.50;3.70;;;;;;;16.55;76.55;102097.09;5012291;28;20048;-52
2022/06/28 07:02:22;;;;;;;14.13;4.10;;;;;;;16.59;76.27;102102.84;4999154;28;20056;-48
2022/06/28 07:05:14;;;;;;;10.40;3.65;;;;;;;16.59;76.59;102098.16;4999284;28;20412;-52
2022/06/28 07:08:02;;;;;;;12.60;3.70;;;;;;;16.61;76.13;102095.97;5012260;28;20046;-49
2022/06/28 07:10:55;;;;;;;10.80;3.42;;;;;;;16.65;75.69;102106.44;5011698;28;20545;-49
2022/06/28 07:13:43;;;;;;;9.52;3.45;;;;;;;16.67;75.38;102104.19;4996392;28;20138;-50
2022/06/28 07:16:32;;;;;;;12.50;3.55;;;;;;;16.68;75.46;102103.13;4986146;28;20042;-49
2022/06/28 07:19:20;;;;;;;10.98;4.15;;;;;;;16.74;74.73;102110.25;5010668;28;20462;-51
2022/06/28 07:22:10;;;;;;;11.63;3.53;;;;;;;16.76;73.90;102108.03;4996376;28;20050;-55
2022/06/28 07:25:01;;;;;;;11.27;3.50;;;;;;;16.75;74.18;102109.97;4996438;28;20048;-51
2022/06/28 07:27:48;;;;;;;14.02;3.58;;;;;;;16.79;74.24;102113.88;4997789;28;20056;-56
2022/06/28 07:30:36;;;;;;;10.25;3.55;;;;;;;16.82;73.04;102116.06;5011979;28;20042;-51
2022/06/28 07:33:24;;;;;;;11.27;3.35;;;;;;;16.85;72.50;102106.41;5011534;28;20125;-56
2022/06/28 07:36:12;;;;;;;10.77;3.63;;;;;;;16.87;71.34;102104.22;4997413;28;20679;-51
2022/06/28 07:39:00;;;;;;;10.75;3.35;;;;;;;16.89;72.40;102106.69;5011248;28;20050;-53
2022/06/28 07:41:51;;;;;;;8.95;3.30;;;;;;;16.90;71.52;102114.66;5012663;28;20050;-52
2022/06/28 07:45:04;;;;;;;11.55;2.80;;;;;;;16.93;70.71;102114.13;4985823;28;20488;-50
2022/06/28 07:47:41;;;;;;;9.52;2.45;;;;;;;16.97;69.49;102112.44;5012101;28;20057;-50
2022/06/28 07:53:38;;;;;;;7.93;2.97;;;;;;;17.04;69.07;102112.97;5009127;28;20536;-48
2022/06/28 07:56:46;;;;;;;9.00;2.92;;;;;;;17.06;69.34;102103.63;5011666;28;20104;-48
2022/06/28 07:59:33;;;;;;;9.18;3.65;;;;;;;17.07;69.01;102110.75;5011775;28;20524;-46
2022/06/28 08:02:23;;;;;;;9.05;3.10;;;;;;;17.11;68.15;102109.91;5011870;28;20038;-44
2022/06/28 08:05:14;;;;;;;5.90;2.50;;;;;;;17.15;67.30;102104.66;5025422;28;20497;-41
2022/06/28 08:08:01;;;;;;;12.60;3.33;;;;;;;17.19;66.34;102100.25;5012765;28;20108;-45
2022/06/28 08:10:53;;;;;;;8.43;2.30;;;;;;;17.24;66.32;102097.47;5015855;28;20405;-43
2022/06/28 08:13:42;;;;;;;6.70;2.50;;;;;;;17.28;66.23;102092.22;5029293;28;20515;-43
2022/06/28 08:16:30;;;;;;;8.57;2.80;;;;;;;17.30;65.14;102096.34;5027297;28;20050;-45
2022/06/28 08:19:19;;;;;;;18.13;3.13;;;;;;;17.30;64.02;102090.84;5029022;28;20096;-41
2022/06/28 08:22:07;;;;;;;6.18;2.55;;;;;;;17.32;65.07;102088.63;5014960;28;20496;-42
2022/06/28 08:24:36;;;;;;;10.07;3.30;;;;;;;17.37;66.29;102091.38;4995794;28;20062;-42
2022/06/28 08:27:24;;;;;;;8.73;2.67;;;;;;;17.43;66.08;102089.41;5008132;28;20072;-43
2022/06/28 08:30:15;;;;;;;7.35;2.47;;;;;;;17.47;66.09;102090.50;5027363;28;20045;-45
2022/06/28 08:33:03;;;;;;;8.35;2.38;;;;;;;17.53;65.28;102088.50;5000757;28;20046;-47
2022/06/28 08:35:51;;;;;;;8.32;2.63;;;;;;;17.61;65.06;102079.66;5000881;28;20061;-47
2022/06/28 08:38:38;;;;;;;7.68;2.30;;;;;;;17.67;63.15;102081.28;5013857;28;20042;-44
2022/06/28 08:41:30;;;;;;;8.02;2.53;;;;;;;17.67;62.83;102073.00;5015055;28;20116;-47
2022/06/28 08:44:22;;;;;;;13.50;2.95;;;;;;;17.71;63.68;102067.75;4999904;28;20133;-43
2022/06/28 08:47:14;;;;;;;6.80;2.38;;;;;;;17.76;63.37;102076.81;5013950;28;20046;-47
2022/06/28 08:50:07;;;;;;;7.57;2.33;;;;;;;17.75;62.09;102075.16;5015135;28;20076;-50
2022/06/28 08:52:55;;;;;;;7.70;2.42;;;;;;;17.76;62.08;102065.78;5013943;28;20052;-50
2022/06/28 08:55:43;;;;;;;7.53;2.35;;;;;;;17.76;61.42;102062.19;5013921;28;20053;-50
2022/06/28 08:58:31;;;;;;;7.00;2.33;;;;;;;17.78;61.32;102065.50;5014453;28;20049;-52
2022/06/28 09:01:14;;;;;;;7.93;2.40;;;;;;;17.79;60.77;102064.38;5014000;28;20132;-49
2022/06/28 09:04:03;;;;;;;9.68;2.30;;;;;;;17.85;62.38;102064.09;5014743;28;20414;-50
2022/06/28 09:06:54;;;;;;;8.02;2.63;;;;;;;17.92;62.02;102062.94;5013888;28;20045;-49
2022/06/28 09:09:41;;;;;;;6.38;2.22;;;;;;;17.97;61.87;102068.44;5011628;28;20389;-50
2022/06/28 09:12:33;;;;;;;8.63;2.50;;;;;;;18.04;61.55;102064.22;5013893;28;20053;-49
2022/06/28 09:15:24;;;;;;;6.35;1.80;;;;;;;18.12;60.87;102062.78;5014093;28;20061;-48
2022/06/28 09:18:14;;;;;;;7.82;2.35;;;;;;;18.17;60.45;102054.47;5004934;28;20077;-50
2022/06/28 09:21:06;;;;;;;9.35;2.70;;;;;;;18.20;59.59;102051.13;5014092;28;20440;-47
2022/06/28 09:24:02;;;;;;;7.60;2.72;;;;;;;18.22;58.86;102054.41;5008290;28;20407;-50
2022/06/28 09:27:05;;;;;;;4.60;1.95;;;;;;;18.20;56.93;102053.88;5016427;28;20412;-48
2022/06/28 09:29:53;;;;;;;5.07;2.00;;;;;;;18.15;56.14;102050.34;5014074;28;20044;-48
2022/06/28 09:32:43;;;;;;;5.28;2.13;;;;;;;18.15;57.74;102045.66;5012841;28;20580;-50
2022/06/28 09:35:31;;;;;;;8.75;2.10;;;;;;;18.19;58.84;102043.16;4976365;28;1099504;-51
2022/06/28 09:38:32;;;;;;;7.20;2.35;;;;;;;18.28;60.41;102047.75;5013792;28;20049;-48
2022/06/28 09:41:26;;;;;;;5.85;2.03;;;;;;;18.35;59.34;102035.53;5012745;28;20583;-49
2022/06/28 09:44:15;;;;;;;6.25;2.10;;;;;;;18.41;60.13;102039.91;5013360;28;20053;-51
2022/06/28 09:47:05;;;;;;;5.60;2.30;;;;;;;18.49;59.53;102036.50;5003803;28;20084;-50
2022/06/28 09:50:02;;;;;;;7.82;2.50;;;;;;;18.54;58.63;102036.44;5015224;28;20096;-51
2022/06/28 09:52:50;;;;;;;7.70;2.00;;;;;;;18.50;56.95;102030.69;5011416;28;20041;-48
2022/06/28 09:55:41;;;;;;;5.82;1.83;;;;;;;18.48;57.67;102018.31;5014304;28;20064;-50
2022/06/28 09:58:09;;;;;;;7.88;1.63;;;;;;;18.53;58.56;102016.28;5014492;28;20072;-49
2022/06/28 10:01:00;;;;;;;7.85;2.97;;;;;;;18.65;58.52;102015.91;5002663;28;20096;-50
2022/06/28 10:03:51;;;;;;;7.53;2.20;;;;;;;18.76;58.00;102010.25;5000028;28;20415;-50
2022/06/28 10:06:38;;;;;;;6.80;2.70;;;;;;;18.77;56.44;102012.75;5005740;28;20049;-50
2022/06/28 10:09:26;;;;;;;8.52;2.53;;;;;;;18.73;56.78;102012.47;5014580;28;20042;-48
2022/06/28 10:15:35;;;;;;;8.27;2.13;;;;;;;18.71;57.69;102014.72;5013768;28;20046;-53
2022/06/28 10:18:24;;;;;;;5.93;2.05;;;;;;;18.79;57.38;102012.47;5005040;28;20041;-53
2022/06/28 10:21:12;;;;;;;9.88;2.70;;;;;;;18.88;57.33;102007.91;5013898;28;20128;-50
2022/06/28 10:23:59;;;;;;;11.27;2.63;;;;;;;18.92;57.03;102006.22;5014154;28;20413;-43
2022/06/28 10:26:37;;;;;;;9.00;2.40;;;;;;;18.96;56.28;101993.47;5012799;28;20452;-48
2022/06/28 10:29:25;;;;;;;6.05;2.17;;;;;;;19.04;57.66;101990.03;5013458;28;20050;-50
2022/06/28 10:32:45;;;;;;;6.13;2.13;;;;;;;19.08;57.21;101990.28;5013061;28;20057;-50
2022/06/28 10:35:34;;;;;;;6.78;2.35;;;;;;;19.13;56.82;101991.00;4999781;28;20064;-55
2022/06/28 10:38:23;;;;;;;7.13;2.25;;;;;;;19.21;57.60;101980.41;5001564;28;20045;-52
2022/06/28 10:41:12;;;;;;;6.15;2.13;;;;;;;19.26;56.43;101983.09;5010231;28;20493;-53
2022/06/28 10:44:12;;;;;;;6.53;2.08;;;;;;;19.31;56.06;101988.56;5014278;28;20455;-52
2022/06/28 10:47:06;;;;;;;8.57;2.88;;;;;;;19.33;55.67;101981.59;5002910;28;20045;-53
2022/06/28 10:49:58;;;;;;;10.10;2.20;;;;;;;19.37;56.75;101976.31;5013998;28;20042;-50
2022/06/28 10:53:00;;;;;;;8.88;2.65;;;;;;;19.40;56.82;101972.94;4999415;28;20045;-50
2022/06/28 10:56:10;;;;;;;4.30;1.73;;;;;;;19.45;58.01;101972.84;5012751;28;20075;-49
2022/06/28 10:59:09;;;;;;;7.10;2.60;;;;;;;19.52;56.25;101973.31;5013577;28;20078;-48
2022/06/28 11:01:57;;;;;;;6.95;2.53;;;;;;;19.50;55.22;101969.19;5014939;28;20048;-48
2022/06/28 11:04:46;;;;;;;9.23;2.40;;;;;;;19.46;54.89;101965.38;5015431;28;20054;-48
2022/06/28 11:07:35;;;;;;;6.50;2.42;;;;;;;19.45;55.99;101956.28;5013680;28;20407;-50
2022/06/28 11:10:22;;;;;;;7.10;2.25;;;;;;;19.45;55.68;101961.00;5013315;28;20049;-49
2022/06/28 11:13:24;;;;;;;4.80;1.73;;;;;;;19.48;56.07;101947.41;5015092;28;20038;-49
2022/06/28 11:16:46;;;;;;;8.20;2.45;;;;;;;19.49;55.84;101951.78;5005430;28;20465;-48
2022/06/28 11:19:23;;;;;;;7.15;2.47;;;;;;;19.47;55.04;101951.28;5012257;28;20044;-53
2022/06/28 11:22:10;;;;;;;8.75;2.15;;;;;;;19.45;55.57;101938.88;5013476;28;20050;-53
2022/06/28 11:25:03;;;;;;;9.38;2.30;;;;;;;19.52;56.96;101929.06;5012328;28;20058;-52
2022/06/28 11:27:58;;;;;;;5.50;2.03;;;;;;;19.66;55.47;101942.13;5025912;28;20046;-50
2022/06/28 11:30:46;;;;;;;10.90;2.67;;;;;;;19.68;56.14;101937.16;5012152;28;20105;-49
2022/06/28 11:33:35;;;;;;;3.80;1.75;;;;;;;19.73;56.97;101939.84;5013124;28;20539;-50
2022/06/28 11:36:30;;;;;;;7.25;2.22;;;;;;;19.80;55.46;101934.72;5014881;28;20038;-48
2022/06/28 11:39:21;;;;;;;6.75;2.28;;;;;;;19.88;54.82;101925.72;5012648;28;20075;-50
2022/06/28 11:42:11;;;;;;;7.68;1.83;;;;;;;19.92;54.94;101923.19;5012264;28;20057;-50
2022/06/28 11:44:59;;;;;;;4.55;1.60;;;;;;;19.92;57.45;101915.69;5012059;28;20064;-51
2022/06/28 11:47:47;;;;;;;6.18;1.83;;;;;;;19.94;53.45;101923.69;5012996;28;20481;-48
2022/06/28 11:51:01;;;;;;;6.60;1.77;;;;;;;19.99;53.56;101921.66;5013091;28;20060;-49
2022/06/28 11:53:55;;;;;;;5.90;1.80;;;;;;;20.10;52.90;101913.97;5003226;28;20136;-49
2022/06/28 11:56:47;;;;;;;4.60;1.67;;;;;;;20.18;53.00;101912.47;5011967;28;20038;-50
2022/06/28 11:59:56;;;;;;;3.10;1.45;;;;;;;20.26;54.28;101924.75;5013027;28;20100;-49
2022/06/28 12:02:49;;;;;;;6.68;2.20;;;;;;;20.31;52.41;101916.34;5012867;28;20056;-49
2022/06/28 12:05:41;;;;;;;6.03;1.92;;;;;;;20.32;52.27;101910.50;5012426;28;20539;-51
2022/06/28 12:08:58;;;;;;;8.35;2.25;;;;;;;20.40;52.25;101920.88;5012855;28;20065;-47
2022/06/28 12:11:52;;;;;;;8.40;1.50;;;;;;;20.41;52.21;101916.13;5004211;28;20058;-50
2022/06/28 12:14:41;;;;;;;6.60;2.00;;;;;;;20.50;52.28;101913.47;5025069;28;20056;-52
2022/06/28 12:17:28;;;;;;;5.85;2.00;;;;;;;20.55;51.71;101919.75;5011913;28;20038;-51
2022/06/28 12:20:16;;;;;;;4.85;1.85;;;;;;;20.58;52.58;101915.53;4998091;28;20062;-50
2022/06/28 12:23:06;;;;;;;4.43;1.70;;;;;;;20.56;51.11;101909.50;5011811;28;20058;-51
2022/06/28 12:26:02;;;;;;;5.72;1.73;;;;;;;20.54;53.31;101912.56;5025130;28;20050;-49
2022/06/28 12:28:50;;;;;;;5.63;2.00;;;;;;;20.58;52.98;101907.25;5012460;28;20046;-47
2022/06/28 12:31:40;;;;;;;5.50;1.75;;;;;;;20.64;51.93;101904.06;5012879;28;20045;-48
2022/06/28 12:34:09;;;;;;;5.55;2.10;;;;;;;20.68;52.61;101895.94;5027310;28;20517;-49
2022/06/28 12:36:59;;;;;;;9.25;2.20;;;;;;;20.80;51.24;101904.53;5012704;28;20049;-50
2022/06/28 12:39:46;;;;;;;7.32;2.55;;;;;;;20.92;51.17;101900.41;5012878;28;20381;-49
2022/06/28 12:42:34;;;;;;;4.88;1.83;;;;;;;21.02;52.26;101897.38;5012557;28;20045;-50
2022/06/28 12:45:22;;;;;;;7.60;2.00;;;;;;;21.09;51.71;101896.97;5012938;28;20053;-50
2022/06/28 12:48:10;;;;;;;4.82;1.60;;;;;;;21.02;51.65;101902.94;5012686;28;20042;-48
2022/06/28 12:51:03;;;;;;;4.60;1.70;;;;;;;20.95;50.95;101892.31;5012793;28;20054;-48
2022/06/28 12:53:54;;;;;;;5.53;1.90;;;;;;;20.89;50.61;101889.94;5012718;28;20526;-48
2022/06/28 12:56:42;;;;;;;4.70;1.90;;;;;;;20.82;51.72;101891.19;5015981;28;20042;-48
2022/06/28 12:59:29;;;;;;;6.22;1.67;;;;;;;20.82;52.58;101899.50;5012985;28;20045;-49
2022/06/28 13:02:10;;;;;;;4.55;1.55;;;;;;;20.88;51.01;101883.59;4998052;28;20053;-51
2022/06/28 13:05:00;;;;;;;3.90;1.60;;;;;;;20.91;51.74;101885.72;5013847;28;20232;-52
2022/06/28 13:07:48;;;;;;;8.10;1.90;;;;;;;20.94;51.79;101878.75;5015735;28;20038;-52
2022/06/28 13:10:27;;;;;;;5.35;1.67;;;;;;;21.02;50.07;101878.84;4998180;28;20060;-48
2022/06/28 13:13:20;;;;;;;7.80;2.42;;;;;;;21.10;50.42;101877.25;5015604;28;20041;-49
2022/06/28 13:16:08;;;;;;;5.72;2.00;;;;;;;21.19;50.24;101875.38;5002330;28;20044;-48
2022/06/28 13:19:02;;;;;;;5.63;1.77;;;;;;;21.23;50.74;101873.59;4988604;28;20034;-48
2022/06/28 13:21:50;;;;;;;5.05;1.88;;;;;;;21.28;51.22;101867.09;5014571;28;20493;-49
2022/06/28 13:24:38;;;;;;;5.05;1.65;;;;;;;21.31;52.16;101869.28;5015057;28;20408;-51